createdAt,value
2022-08-03T00:02:19.575Z,100332.44
2022-08-03T00:04:48.935Z,100331.78
2022-08-03T00:07:18.492Z,100333.81
2022-08-03T00:09:46.462Z,100339.91
2022-08-03T00:12:14.813Z,100345.03
2022-08-03T00:14:43.705Z,100340.75
2022-08-03T00:17:12.031Z,100335.47
2022-08-03T00:19:39.973Z,100342.22
2022-08-03T00:22:09.396Z,100336.25
2022-08-03T00:24:37.307Z,100340.13
2022-08-03T00:27:05.520Z,100337.47
2022-08-03T00:29:33.413Z,100341.84
2022-08-03T00:32:21.477Z,100341.31
2022-08-03T00:34:57.938Z,100343.44
2022-08-03T00:37:41.466Z,100337.59
2022-08-03T00:40:12.738Z,100338.09
2022-08-03T00:42:53.574Z,100341.38
2022-08-03T00:45:23.489Z,100336.75
2022-08-03T00:47:52.029Z,100331.56
2022-08-03T00:50:23.161Z,100330.66
2022-08-03T00:52:54.685Z,100337.09
2022-08-03T00:55:23.472Z,100329.81
2022-08-03T00:57:52.134Z,100335.53
2022-08-03T01:00:23.413Z,100331.75
2022-08-03T01:02:52.500Z,100337.88
2022-08-03T01:05:21.499Z,100329.59
2022-08-03T01:08:09.269Z,100330.00
2022-08-03T01:10:47.254Z,100324.97
2022-08-03T01:14:03.589Z,100327.16
2022-08-03T01:16:19.228Z,100325.22
2022-08-03T01:18:53.609Z,100321.38
2022-08-03T01:21:27.721Z,100321.50
2022-08-03T01:24:06.452Z,100319.59
2022-08-03T01:27:00.770Z,100323.09
2022-08-03T01:29:53.097Z,100323.09
2022-08-03T01:32:53.531Z,100321.56
2022-08-03T01:35:17.585Z,100320.59
2022-08-03T01:37:53.037Z,100318.78
2022-08-03T01:40:23.354Z,100320.03
2022-08-03T01:42:53.610Z,100316.34
2022-08-03T01:45:27.693Z,100315.66
2022-08-03T01:47:57.130Z,100308.91
2022-08-03T01:50:28.421Z,100312.44
2022-08-03T01:52:58.182Z,100317.28
2022-08-03T01:55:28.558Z,100310.59
2022-08-03T01:58:05.428Z,100308.34
2022-08-03T02:00:37.923Z,100313.28
2022-08-03T02:03:08.164Z,100309.03
2022-08-03T02:05:36.967Z,100312.69
2022-08-03T02:08:07.267Z,100308.44
2022-08-03T02:10:37.394Z,100315.34
2022-08-03T02:13:08.290Z,100309.84
2022-08-03T02:15:39.335Z,100302.44
2022-08-03T02:18:09.758Z,100309.25
2022-08-03T02:20:39.567Z,100310.97
2022-08-03T02:23:08.480Z,100318.50
2022-08-03T02:25:42.937Z,100308.78
2022-08-03T02:28:13.436Z,100315.06
2022-08-03T02:30:46.591Z,100308.25
2022-08-03T02:33:26.447Z,100310.19
2022-08-03T02:35:56.576Z,100307.75
2022-08-03T02:38:29.742Z,100308.34
2022-08-03T02:40:59.893Z,100307.94
2022-08-03T02:43:39.163Z,100306.34
2022-08-03T02:46:23.869Z,100309.75
2022-08-03T02:48:55.053Z,100306.31
2022-08-03T02:51:24.907Z,100308.16
2022-08-03T02:53:54.281Z,100303.09
2022-08-03T02:56:25.898Z,100303.97
2022-08-03T02:58:54.830Z,100304.63
2022-08-03T03:01:27.226Z,100303.56
2022-08-03T03:03:57.373Z,100291.78
2022-08-03T03:06:29.298Z,100297.47
2022-08-03T03:09:00.012Z,100298.19
2022-08-03T03:11:28.350Z,100296.66
2022-08-03T03:13:58.757Z,100297.28
2022-08-03T03:16:30.920Z,100300.88
2022-08-03T03:19:00.791Z,100304.59
2022-08-03T03:21:30.705Z,100308.44
2022-08-03T03:23:59.881Z,100305.81
2022-08-03T03:26:28.798Z,100303.63
2022-08-03T03:28:57.196Z,100303.38
2022-08-03T03:31:25.514Z,100298.59
2022-08-03T03:33:55.469Z,100307.72
2022-08-03T03:36:23.598Z,100311.88
2022-08-03T03:38:51.892Z,100313.81
2022-08-03T03:41:21.984Z,100304.56
2022-08-03T03:43:51.099Z,100314.28
2022-08-03T03:46:19.563Z,100317.41
2022-08-03T03:48:47.984Z,100310.81
2022-08-03T03:51:17.781Z,100317.91
2022-08-03T03:53:57.076Z,100318.63
2022-08-03T03:56:26.055Z,100323.53
2022-08-03T03:58:54.362Z,100325.06
2022-08-03T04:01:23.170Z,100325.22
2022-08-03T04:03:51.411Z,100326.41
2022-08-03T04:06:38.652Z,100321.25
2022-08-03T04:09:27.229Z,100322.47
2022-08-03T04:12:02.932Z,100327.38
2022-08-03T04:14:34.963Z,100326.16
2022-08-03T04:17:05.960Z,100324.38
2022-08-03T04:19:39.484Z,100321.38
2022-08-03T04:22:12.519Z,100327.59
2022-08-03T04:24:44.263Z,100331.69
2022-08-03T04:27:15.034Z,100318.25
2022-08-03T04:29:48.527Z,100332.03
2022-08-03T04:32:18.128Z,100335.19
2022-08-03T04:34:46.553Z,100336.97
2022-08-03T04:37:25.787Z,100335.28
2022-08-03T04:39:57.581Z,100340.56
2022-08-03T04:42:26.871Z,100338.53
2022-08-03T04:45:01.133Z,100336.28
2022-08-03T04:47:33.342Z,100338.91
2022-08-03T04:50:03.488Z,100333.38
2022-08-03T04:52:33.152Z,100335.88
2022-08-03T04:55:01.056Z,100334.97
2022-08-03T04:57:29.478Z,100336.78
2022-08-03T05:00:02.725Z,100340.47
2022-08-03T05:02:32.434Z,100338.00
2022-08-03T05:05:00.997Z,100334.50
2022-08-03T05:07:34.117Z,100340.03
2022-08-03T05:10:15.105Z,100343.81
2022-08-03T05:12:46.421Z,100343.91
2022-08-03T05:15:14.455Z,100342.13
2022-08-03T05:17:42.859Z,100344.34
2022-08-03T05:20:12.645Z,100343.97
2022-08-03T05:22:40.574Z,100348.03
2022-08-03T05:25:17.376Z,100343.59
2022-08-03T05:27:48.806Z,100356.53
2022-08-03T05:30:30.467Z,100348.94
2022-08-03T05:33:01.678Z,100353.59
2022-08-03T05:35:57.579Z,100349.63
2022-08-03T05:38:28.291Z,100346.28
2022-08-03T05:41:20.173Z,100351.34
2022-08-03T05:43:47.751Z,100354.38
2022-08-03T05:46:15.846Z,100357.47
2022-08-03T05:48:44.849Z,100355.63
2022-08-03T05:51:13.496Z,100353.09
2022-08-03T05:53:41.935Z,100359.84
2022-08-03T05:56:14.018Z,100357.47
2022-08-03T05:58:45.015Z,100358.56
2022-08-03T06:01:13.018Z,100357.63
2022-08-03T06:03:44.312Z,100350.38
2022-08-03T06:06:12.504Z,100358.19
2022-08-03T06:08:41.347Z,100361.28
2022-08-03T06:11:09.864Z,100348.88
2022-08-03T06:13:39.721Z,100352.38
2022-08-03T06:16:07.875Z,100342.94
2022-08-03T06:18:40.415Z,100349.09
2022-08-03T06:21:15.701Z,100346.84
2022-08-03T06:23:54.764Z,100342.78
2022-08-03T06:26:28.768Z,100355.47
2022-08-03T06:28:58.287Z,100350.91
2022-08-03T06:31:33.372Z,100347.13
2022-08-03T06:34:34.446Z,100352.31
2022-08-03T06:36:58.630Z,100349.09
2022-08-03T06:39:29.954Z,100346.56
2022-08-03T06:41:58.191Z,100350.50
2022-08-03T06:44:27.907Z,100349.50
2022-08-03T06:46:58.085Z,100357.03
2022-08-03T06:49:27.422Z,100355.66
2022-08-03T06:52:37.097Z,100347.53
2022-08-03T06:54:44.785Z,100344.19
2022-08-03T06:57:13.111Z,100346.16
2022-08-03T07:00:08.224Z,100347.06
2022-08-03T07:02:30.846Z,100355.03
2022-08-03T07:04:59.255Z,100355.13
2022-08-03T07:07:27.202Z,100358.31
2022-08-03T07:09:58.287Z,100357.50
2022-08-03T07:12:28.648Z,100362.03
2022-08-03T07:15:02.565Z,100359.50
2022-08-03T07:17:33.899Z,100361.34
2022-08-03T07:20:03.682Z,100354.22
2022-08-03T07:22:31.792Z,100364.28
2022-08-03T07:25:00.034Z,100358.47
2022-08-03T07:27:29.869Z,100354.66
2022-08-03T07:30:00.414Z,100360.13
2022-08-03T07:32:31.574Z,100359.41
2022-08-03T07:35:01.165Z,100358.66
2022-08-03T07:37:30.801Z,100356.19
2022-08-03T07:39:59.518Z,100360.19
2022-08-03T07:42:27.911Z,100363.25
2022-08-03T07:44:56.102Z,100359.88
2022-08-03T07:47:35.492Z,100358.63
2022-08-03T07:50:08.550Z,100354.44
2022-08-03T07:52:49.378Z,100358.44
2022-08-03T07:55:17.952Z,100344.38
2022-08-03T07:57:45.960Z,100350.28
2022-08-03T08:00:17.400Z,100351.50
2022-08-03T08:02:47.285Z,100350.66
2022-08-03T08:05:15.395Z,100357.19
2022-08-03T08:07:44.016Z,100359.72
2022-08-03T08:10:19.417Z,100356.31
2022-08-03T08:12:47.717Z,100346.41
2022-08-03T08:15:15.821Z,100351.44
2022-08-03T08:17:47.351Z,100345.06
2022-08-03T08:20:27.084Z,100342.09
2022-08-03T08:22:58.181Z,100346.41
2022-08-03T08:25:29.413Z,100342.59
2022-08-03T08:28:29.063Z,100336.47
2022-08-03T08:30:46.297Z,100342.34
2022-08-03T08:33:22.548Z,100340.69
2022-08-03T08:35:52.993Z,100340.69
2022-08-03T08:38:21.039Z,100337.31
2022-08-03T08:40:50.536Z,100333.16
2022-08-03T08:43:18.838Z,100338.50
2022-08-03T08:45:48.438Z,100329.50
2022-08-03T08:48:23.437Z,100328.53
2022-08-03T08:50:54.528Z,100330.34
2022-08-03T08:53:27.227Z,100323.63
2022-08-03T08:56:00.533Z,100324.06
2022-08-03T08:58:31.498Z,100320.69
2022-08-03T09:01:00.294Z,100312.19
2022-08-03T09:03:30.940Z,100318.72
2022-08-03T09:06:00.867Z,100319.06
2022-08-03T09:08:30.184Z,100324.34
2022-08-03T09:10:58.247Z,100321.91
2022-08-03T09:13:26.770Z,100326.81
2022-08-03T09:16:16.618Z,100325.41
2022-08-03T09:18:48.473Z,100318.84
2022-08-03T09:21:32.059Z,100313.91
2022-08-03T09:24:04.157Z,100314.41
2022-08-03T09:26:34.505Z,100315.50
2022-08-03T09:29:08.114Z,100317.69
2022-08-03T09:31:43.108Z,100320.38
2022-08-03T09:34:15.434Z,100316.13
2022-08-03T09:36:45.755Z,100312.00
2022-08-03T09:39:16.704Z,100311.78
2022-08-03T09:41:46.953Z,100317.88
2022-08-03T09:44:25.448Z,100306.22
2022-08-03T09:46:56.716Z,100311.19
2022-08-03T09:49:26.826Z,100303.44
2022-08-03T09:52:32.330Z,100300.94
2022-08-03T09:54:44.334Z,100291.81
2022-08-03T09:57:23.348Z,100289.13
2022-08-03T09:59:54.964Z,100294.38
2022-08-03T10:02:41.012Z,100287.50
2022-08-03T10:05:19.497Z,100291.63
2022-08-03T10:07:49.643Z,100293.44
2022-08-03T10:10:30.209Z,100284.91
2022-08-03T10:13:01.145Z,100282.00
2022-08-03T10:16:21.661Z,100280.53
2022-08-03T10:18:18.042Z,100277.88
2022-08-03T10:20:53.446Z,100271.44
2022-08-03T10:23:22.554Z,100271.28
2022-08-03T10:25:59.241Z,100268.88
2022-08-03T10:28:34.885Z,100274.88
2022-08-03T10:31:07.232Z,100261.59
2022-08-03T10:33:51.490Z,100263.03
2022-08-03T10:36:25.330Z,100261.81
2022-08-03T10:38:54.125Z,100253.94
2022-08-03T10:41:24.513Z,100254.19
2022-08-03T10:43:57.889Z,100249.84
2022-08-03T10:46:28.105Z,100251.28
2022-08-03T10:48:57.585Z,100253.81
2022-08-03T10:51:32.250Z,100253.19
2022-08-03T10:54:01.839Z,100250.84
2022-08-03T10:57:07.197Z,100231.06
2022-08-03T11:00:03.474Z,100232.94
2022-08-03T11:03:17.676Z,100220.16
2022-08-03T11:05:46.869Z,100219.47
2022-08-03T11:08:40.004Z,100217.97
2022-08-03T11:11:28.367Z,100219.06
2022-08-03T11:14:02.808Z,100216.88
2022-08-03T11:16:32.436Z,100217.72
2022-08-03T11:19:02.772Z,100219.69
2022-08-03T11:21:54.399Z,100223.81
2022-08-03T11:25:01.124Z,100216.56
2022-08-03T11:27:33.850Z,100218.34
2022-08-03T11:30:10.381Z,100220.75
2022-08-03T11:33:00.034Z,100214.09
2022-08-03T11:35:30.289Z,100207.88
2022-08-03T11:38:08.897Z,100208.78
2022-08-03T11:40:42.103Z,100209.88
2022-08-03T11:43:12.205Z,100206.06
2022-08-03T11:45:40.422Z,100201.59
2022-08-03T11:48:18.339Z,100189.34
2022-08-03T11:50:46.479Z,100192.88
2022-08-03T11:53:19.411Z,100198.13
2022-08-03T11:55:49.922Z,100190.53
2022-08-03T11:59:16.587Z,100193.88
2022-08-03T12:01:08.701Z,100193.75
2022-08-03T12:03:37.317Z,100182.06
2022-08-03T12:06:10.702Z,100180.88
2022-08-03T12:08:38.668Z,100179.09
2022-08-03T12:11:10.109Z,100175.63
2022-08-03T12:14:43.925Z,100174.28
2022-08-03T12:16:29.556Z,100172.41
2022-08-03T12:18:59.698Z,100169.09
2022-08-03T12:21:29.357Z,100165.66
2022-08-03T12:24:01.800Z,100168.78
2022-08-03T12:26:43.408Z,100163.31
2022-08-03T12:29:18.241Z,100164.28
2022-08-03T12:31:46.325Z,100167.16
2022-08-03T12:34:14.749Z,100167.81
2022-08-03T12:36:52.909Z,100161.28
2022-08-03T12:39:25.274Z,100161.13
2022-08-03T12:41:56.683Z,100155.59
2022-08-03T12:44:31.881Z,100161.31
2022-08-03T12:47:01.279Z,100162.44
2022-08-03T12:49:30.497Z,100163.25
2022-08-03T12:52:04.087Z,100152.91
2022-08-03T12:54:36.133Z,100162.56
2022-08-03T12:57:07.233Z,100162.63
2022-08-03T12:59:40.713Z,100161.84
2022-08-03T13:02:17.672Z,100160.13
2022-08-03T13:04:47.552Z,100153.19
2022-08-03T13:07:16.583Z,100145.91
2022-08-03T13:09:47.667Z,100151.78
2022-08-03T13:12:20.847Z,100148.69
2022-08-03T13:14:51.852Z,100146.50
2022-08-03T13:17:20.607Z,100145.56
2022-08-03T13:19:50.291Z,100145.22
2022-08-03T13:22:20.230Z,100142.97
2022-08-03T13:24:49.985Z,100140.94
2022-08-03T13:28:01.629Z,100136.09
2022-08-03T13:30:09.625Z,100140.47
2022-08-03T13:32:37.717Z,100140.19
2022-08-03T13:35:06.863Z,100131.09
2022-08-03T13:37:35.864Z,100125.22
2022-08-03T13:40:05.841Z,100122.22
2022-08-03T13:42:36.845Z,100124.69
2022-08-03T13:45:06.786Z,100129.50
2022-08-03T13:47:35.083Z,100111.84
2022-08-03T13:50:03.450Z,100117.41
2022-08-03T13:52:32.813Z,100113.06
2022-08-03T13:55:01.589Z,100101.00
2022-08-03T13:58:06.347Z,100109.94
2022-08-03T14:00:26.477Z,100102.88
2022-08-03T14:03:09.126Z,100093.75
2022-08-03T14:05:41.918Z,100098.84
2022-08-03T14:08:10.898Z,100099.31
2022-08-03T14:10:40.532Z,100088.94
2022-08-03T14:13:09.143Z,100099.94
2022-08-03T14:15:38.945Z,100081.75
2022-08-03T14:18:15.923Z,100086.69
2022-08-03T14:20:56.891Z,100080.84
2022-08-03T14:23:27.402Z,100080.47
2022-08-03T14:25:55.430Z,100078.84
2022-08-03T14:28:25.381Z,100076.38
2022-08-03T14:30:57.041Z,100078.44
2022-08-03T14:33:25.740Z,100073.16
2022-08-03T14:35:54.255Z,100066.84
2022-08-03T14:38:23.026Z,100071.63
2022-08-03T14:40:51.952Z,100060.00
2022-08-03T14:43:21.160Z,100068.38
2022-08-03T14:45:52.357Z,100065.31
2022-08-03T14:50:31.789Z,100061.28
2022-08-03T14:51:12.299Z,100069.50
2022-08-03T14:53:41.642Z,100064.22
2022-08-03T14:56:10.677Z,100065.00
2022-08-03T14:58:39.303Z,100056.19
2022-08-03T15:02:03.055Z,100059.28
2022-08-03T15:03:58.579Z,100054.53
2022-08-03T15:06:26.915Z,100052.53
2022-08-03T15:09:21.353Z,100046.91
2022-08-03T15:11:43.778Z,100044.44
2022-08-03T15:14:13.426Z,100044.06
2022-08-03T15:16:42.721Z,100043.41
2022-08-03T15:20:00.819Z,100026.94
2022-08-03T15:22:00.990Z,100028.91
2022-08-03T15:24:29.907Z,100022.50
2022-08-03T15:26:57.810Z,100027.84
2022-08-03T15:30:08.983Z,100030.91
2022-08-03T15:32:14.931Z,100017.31
2022-08-03T15:34:50.313Z,100017.69
2022-08-03T15:37:19.910Z,100012.78
2022-08-03T15:39:59.991Z,100010.31
2022-08-03T15:42:31.010Z,100007.09
2022-08-03T15:44:59.297Z,100013.34
2022-08-03T15:47:27.705Z,100004.19
2022-08-03T15:49:56.896Z,100011.47
2022-08-03T15:52:25.382Z,100004.06
2022-08-03T15:54:53.617Z,100001.75
2022-08-03T15:57:22.148Z,100004.69
2022-08-03T15:59:50.667Z,100001.47
2022-08-03T16:02:18.680Z,99994.75
2022-08-03T16:04:46.642Z,99990.31
2022-08-03T16:07:16.280Z,99990.13
2022-08-03T16:09:44.523Z,99982.50
2022-08-03T16:12:16.416Z,99984.91
2022-08-03T16:14:53.818Z,99992.47
2022-08-03T16:17:23.549Z,99996.91
2022-08-03T16:19:54.837Z,99987.31
2022-08-03T16:22:28.305Z,99986.66
2022-08-03T16:24:57.682Z,99985.44
2022-08-03T16:27:56.773Z,99986.09
2022-08-03T16:30:16.744Z,99992.34
2022-08-03T16:32:45.822Z,99987.78
2022-08-03T16:35:19.178Z,99985.94
2022-08-03T16:37:56.891Z,99990.47
2022-08-03T16:40:25.991Z,99989.56
2022-08-03T16:42:54.534Z,99987.63
2022-08-03T16:45:22.933Z,99983.91
2022-08-03T16:48:01.521Z,99977.44
2022-08-03T16:50:34.440Z,99978.75
2022-08-03T16:53:09.028Z,99975.41
2022-08-03T16:55:48.461Z,99973.75
2022-08-03T16:58:34.267Z,99963.19
2022-08-03T17:01:22.444Z,99969.41
2022-08-03T17:04:02.700Z,99967.34
2022-08-03T17:06:35.165Z,99966.25
2022-08-03T17:09:08.344Z,99967.72
2022-08-03T17:11:43.095Z,99977.72
2022-08-03T17:14:14.663Z,99976.34
2022-08-03T17:16:52.538Z,99978.03
2022-08-03T17:19:24.199Z,99970.19
2022-08-03T17:21:58.732Z,99973.91
2022-08-03T17:24:35.002Z,99974.03
2022-08-03T17:27:08.905Z,99969.97
2022-08-03T17:29:45.100Z,99971.09
2022-08-03T17:32:18.398Z,99971.28
2022-08-03T17:34:50.711Z,99973.38
2022-08-03T17:37:50.638Z,99969.91
2022-08-03T17:40:17.361Z,99979.16
2022-08-03T17:42:50.825Z,99976.91
2022-08-03T17:45:20.800Z,99967.88
2022-08-03T17:47:57.719Z,99969.97
2022-08-03T17:50:35.368Z,99965.84
2022-08-03T17:53:15.300Z,99964.91
2022-08-03T17:56:04.927Z,99970.34
2022-08-03T17:58:53.524Z,99972.44
2022-08-03T18:02:00.127Z,99975.53
2022-08-03T18:04:41.295Z,99985.91
2022-08-03T18:07:12.542Z,99972.25
2022-08-03T18:10:04.046Z,99982.75
2022-08-03T18:12:46.008Z,99980.47
2022-08-03T18:15:27.768Z,99984.16
2022-08-03T18:18:03.089Z,99981.44
2022-08-03T18:20:42.035Z,99984.13
2022-08-03T18:23:24.692Z,99987.84
2022-08-03T18:25:59.214Z,99981.16
2022-08-03T18:28:30.234Z,99986.91
2022-08-03T18:31:04.161Z,99977.19
2022-08-03T18:34:17.260Z,99982.72
2022-08-03T18:36:29.923Z,99982.03
2022-08-03T18:39:00.142Z,99985.03
2022-08-03T18:41:32.619Z,99985.19
2022-08-03T18:44:08.349Z,99988.66
2022-08-03T18:46:48.053Z,99986.31
2022-08-03T18:49:29.854Z,99987.31
2022-08-03T18:52:12.419Z,99989.47
2022-08-03T18:55:02.572Z,100002.66
2022-08-03T18:57:46.382Z,100000.56
2022-08-03T19:03:12.457Z,99999.75
2022-08-03T19:06:02.448Z,99994.56
2022-08-03T19:08:48.668Z,100001.94
2022-08-03T19:11:28.238Z,100001.69
2022-08-03T19:14:00.308Z,100004.75
2022-08-03T19:16:39.376Z,99998.91
2022-08-03T19:19:14.408Z,100006.03
2022-08-03T19:21:44.650Z,99997.75
2022-08-03T19:25:12.224Z,100004.47
2022-08-03T19:27:40.630Z,100005.88
2022-08-03T19:30:32.324Z,100013.25
2022-08-03T19:33:01.640Z,100006.56
2022-08-03T19:35:51.655Z,100010.25
2022-08-03T19:38:28.567Z,100019.03
2022-08-03T19:41:05.722Z,100018.78
2022-08-03T19:43:53.248Z,100008.81
2022-08-03T19:46:30.542Z,100017.03
2022-08-03T19:49:04.128Z,100017.03
2022-08-03T19:51:58.487Z,100016.59
2022-08-03T19:54:39.594Z,100018.59
2022-08-03T19:57:25.498Z,100013.81
2022-08-03T19:59:57.039Z,100015.84
2022-08-03T20:02:28.045Z,100015.03
2022-08-03T20:04:59.906Z,100020.66
2022-08-03T20:07:30.928Z,100023.31
2022-08-03T20:10:01.374Z,100015.66
2022-08-03T20:12:39.116Z,100020.66
2022-08-03T20:15:10.512Z,100014.97
2022-08-03T20:17:57.160Z,100009.00
2022-08-03T20:20:30.208Z,100020.44
2022-08-03T20:22:59.895Z,100013.78
2022-08-03T20:25:37.913Z,100013.78
2022-08-03T20:28:15.235Z,100021.91
2022-08-03T20:30:47.567Z,100018.59
2022-08-03T20:33:18.331Z,100018.78
2022-08-03T20:35:50.045Z,100018.53
2022-08-03T20:38:19.471Z,100016.13
2022-08-03T20:40:49.039Z,100010.13
2022-08-03T20:43:19.937Z,100015.19
2022-08-03T20:46:00.266Z,100016.56
2022-08-03T20:48:37.263Z,100007.44
2022-08-03T20:51:15.662Z,100013.44
2022-08-03T20:53:59.744Z,100010.66
2022-08-03T20:56:33.738Z,100011.00
2022-08-03T20:59:05.673Z,100014.88
2022-08-03T21:01:35.996Z,100012.75
2022-08-03T21:04:07.013Z,100009.25
2022-08-03T21:06:42.874Z,100015.94
2022-08-03T21:09:19.624Z,100006.47
2022-08-03T21:11:51.725Z,100007.66
2022-08-03T21:13:00.964Z,99991.41
2022-08-03T21:14:26.871Z,99997.69
2022-08-03T21:16:56.776Z,99997.06
2022-08-03T21:19:27.207Z,100004.56
2022-08-03T21:21:56.327Z,100004.94
2022-08-03T21:24:26.779Z,100002.47
2022-08-03T21:26:55.721Z,100001.63
2022-08-03T21:29:25.625Z,100000.78
2022-08-03T21:31:54.273Z,100003.16
2022-08-03T21:34:25.168Z,100003.91
2022-08-03T21:36:53.390Z,99999.41
2022-08-03T21:39:21.442Z,100003.91
2022-08-03T21:41:49.463Z,99996.22
2022-08-03T21:44:29.090Z,99998.63
2022-08-03T21:47:00.900Z,99997.59
2022-08-03T21:50:05.806Z,100003.66
2022-08-03T21:52:22.538Z,100005.13
2022-08-03T21:54:52.290Z,100001.38
2022-08-03T21:57:23.042Z,100002.38
2022-08-03T21:59:55.270Z,99997.38
2022-08-03T22:02:30.058Z,99996.41
2022-08-03T22:05:00.135Z,99999.75
2022-08-03T22:07:31.186Z,99995.25
2022-08-03T22:10:01.473Z,99992.75
2022-08-03T22:12:31.587Z,99998.09
2022-08-03T22:15:02.237Z,100002.28
2022-08-03T22:17:55.709Z,100001.63
2022-08-03T22:20:22.315Z,100002.16
2022-08-03T22:22:56.560Z,99996.34
2022-08-03T22:25:29.384Z,99997.53
2022-08-03T22:27:59.425Z,100008.22
2022-08-03T22:30:28.165Z,100005.44
2022-08-03T22:32:58.972Z,100002.81
2022-08-03T22:35:28.280Z,100000.22
2022-08-03T22:37:58.609Z,100003.22
2022-08-03T22:40:28.006Z,100008.09
2022-08-03T22:42:56.262Z,99996.63
2022-08-03T22:46:07.498Z,99998.44
2022-08-03T22:48:17.396Z,99996.16
2022-08-03T22:50:45.859Z,100006.31
2022-08-03T22:53:17.957Z,100005.97
2022-08-03T22:55:46.714Z,100005.28
2022-08-03T22:58:16.562Z,100002.47
2022-08-03T23:00:54.079Z,100005.63
2022-08-03T23:04:01.186Z,100009.94
2022-08-03T23:06:17.549Z,100010.09
2022-08-03T23:08:47.545Z,100014.44
2022-08-03T23:11:18.563Z,100021.94
2022-08-03T23:13:48.087Z,100015.28
2022-08-03T23:16:28.954Z,100014.94
2022-08-03T23:18:59.527Z,100008.78
2022-08-03T23:21:53.416Z,100017.78
2022-08-03T23:24:27.499Z,100009.44
2022-08-03T23:26:58.480Z,100011.63
2022-08-03T23:29:29.947Z,100018.28
2022-08-03T23:31:59.501Z,100017.78
2022-08-03T23:34:46.897Z,100011.91
2022-08-03T23:37:15.908Z,100010.44
2022-08-03T23:39:46.521Z,100014.97
2022-08-03T23:42:16.222Z,100010.59
2022-08-03T23:44:45.907Z,100010.44
2022-08-03T23:47:14.317Z,100007.78
2022-08-03T23:49:43.972Z,100017.28
2022-08-03T23:52:21.824Z,100011.66
2022-08-03T23:55:04.366Z,100009.63
2022-08-03T23:57:43.705Z,100001.00
